Stolt Skua — ZCPQ2 — position and weather

sailwx.info

Track history (hours):
 
Tides and Currents Weather Stations Pressure Air Temp Water Temp Dewpoint Dewpoint Depression Visibility Wind Speed Wind Dir Waves Ship Positions

Stolt Skua

Last reported at 2017-Dec-09 15:40 UTC. Time now 2017-Dec-11 21:17 UTC.
Position N 29°26' W 094°50'.

Length 112 m; draft 6.2 m.

Type: Tanker. MMSI: 319121000.

Date/timePositionNaut miles runAvg speedWind from/ knotsBaromVisibWave heightAir tempDewpointWater temp
2017-Dec-09 15:40N 29°26' W 094°50'213.1
2017-Dec-09 15:30N 29°28' W 094°51'613.0
2017-Dec-09 15:00N 29°34' W 094°55'612.5
2017-Dec-09 14:31N 29°39' W 094°58'510.3
2017-Dec-09 14:01N 29°43' W 095°01'4 8.1
2017-Dec-09 13:31N 29°45' W 095°06'0 0.0
2017-Dec-08 08:14N 29°45' W 095°06'0 0.0
2017-Dec-08 08:00N 29°45' W 095°06'2 3.1
2017-Dec-08 07:29N 29°45' W 095°04'4 7.7
2017-Dec-08 07:00N 29°42' W 095°01'510.7
2017-Dec-08 06:30N 29°38' W 094°58'612.5
2017-Dec-08 06:00N 29°33' W 094°54'  
2017-Dec-02 03:28N 19°12' W 096°05'3 7.2
2017-Dec-02 03:00N 19°13' W 096°08'0 0.0
2017-Dec-02 02:24N 19°13' W 096°08'0 0.0
2017-Dec-02 02:00N 19°13' W 096°08'0 0.0
2017-Dec-01 02:32N 19°13' W 096°08'0 0.0
2017-Dec-01 02:30N 19°13' W 096°08'1 2.4
2017-Dec-01 02:00N 19°12' W 096°07'  
Track history (hours):
 
Tides and Currents Weather Stations Pressure Air Temp Water Temp Dewpoint Dewpoint Depression Visibility Wind Speed Wind Dir Waves Ship Positions

Stolt Skua

Last reported at 2017-Dec-09 15:40 UTC. Time now 2017-Dec-11 21:17 UTC.
Position N 29°26' W 094°50'.

Length 112 m; draft 6.2 m.

Type: Tanker. MMSI: 319121000.

Date/timePositionNaut miles runAvg speedWind from/ knotsBaromVisibWave heightAir tempDewpointWater temp
2017-Dec-09 15:40N 29°26' W 094°50'213.1
2017-Dec-09 15:30N 29°28' W 094°51'613.0
2017-Dec-09 15:00N 29°34' W 094°55'612.5
2017-Dec-09 14:31N 29°39' W 094°58'510.3
2017-Dec-09 14:01N 29°43' W 095°01'4 8.1
2017-Dec-09 13:31N 29°45' W 095°06'0 0.0
2017-Dec-08 08:14N 29°45' W 095°06'0 0.0
2017-Dec-08 08:00N 29°45' W 095°06'2 3.1
2017-Dec-08 07:29N 29°45' W 095°04'4 7.7
2017-Dec-08 07:00N 29°42' W 095°01'510.7
2017-Dec-08 06:30N 29°38' W 094°58'612.5
2017-Dec-08 06:00N 29°33' W 094°54'  
2017-Dec-02 03:28N 19°12' W 096°05'3 7.2
2017-Dec-02 03:00N 19°13' W 096°08'0 0.0
2017-Dec-02 02:24N 19°13' W 096°08'0 0.0
2017-Dec-02 02:00N 19°13' W 096°08'0 0.0
2017-Dec-01 02:32N 19°13' W 096°08'0 0.0
2017-Dec-01 02:30N 19°13' W 096°08'1 2.4
2017-Dec-01 02:00N 19°12' W 096°07'  

Dump ship's entire track history